sensor_id;sensor_type;location;lat;lon;timestamp;pressure;altitude;pressure_sealevel;temperature;humidity
42247;BME280;27913;42.722;23.268;2023-03-04T00:01:36;95030.44;;;4.30;100.00
42247;BME280;27913;42.722;23.268;2023-03-04T00:04:02;94699.44;;;2.14;100.00
42247;BME280;27913;42.722;23.268;2023-03-04T00:06:27;95038.81;;;4.24;100.00
42247;BME280;27913;42.722;23.268;2023-03-04T00:08:53;94975.91;;;3.82;100.00
42247;BME280;27913;42.722;23.268;2023-03-04T00:11:18;94839.72;;;2.99;100.00
42247;BME280;27913;42.722;23.268;2023-03-04T00:13:44;95025.56;;;4.17;100.00
42247;BME280;27913;42.722;23.268;2023-03-04T00:16:09;95039.25;;;4.19;100.00
42247;BME280;27913;42.722;23.268;2023-03-04T00:18:35;95033.22;;;4.19;100.00
42247;BME280;27913;42.722;23.268;2023-03-04T00:21:00;95020.50;;;4.16;100.00
42247;BME280;27913;42.722;23.268;2023-03-04T00:23:26;94947.75;;;3.68;100.00
42247;BME280;27913;42.722;23.268;2023-03-04T00:25:51;94940.41;;;3.63;100.00
42247;BME280;27913;42.722;23.268;2023-03-04T00:28:17;94952.56;;;3.72;100.00
42247;BME280;27913;42.722;23.268;2023-03-04T00:30:43;95007.72;;;4.22;100.00
42247;BME280;27913;42.722;23.268;2023-03-04T00:33:08;95008.00;;;4.19;100.00
42247;BME280;27913;42.722;23.268;2023-03-04T00:35:34;94937.88;;;3.71;100.00
42247;BME280;27913;42.722;23.268;2023-03-04T00:37:59;95003.09;;;4.16;100.00
42247;BME280;27913;42.722;23.268;2023-03-04T00:40:24;95001.31;;;4.17;100.00
42247;BME280;27913;42.722;23.268;2023-03-04T00:42:50;94919.59;;;3.63;100.00
42247;BME280;27913;42.722;23.268;2023-03-04T00:45:15;94997.44;;;4.21;100.00
42247;BME280;27913;42.722;23.268;2023-03-04T00:47:41;94995.00;;;4.19;100.00
42247;BME280;27913;42.722;23.268;2023-03-04T00:50:07;94879.94;;;3.33;100.00
42247;BME280;27913;42.722;23.268;2023-03-04T00:52:33;95002.59;;;4.13;100.00
42247;BME280;27913;42.722;23.268;2023-03-04T00:54:58;94846.63;;;3.18;100.00
42247;BME280;27913;42.722;23.268;2023-03-04T00:57:24;94998.16;;;4.13;100.00
42247;BME280;27913;42.722;23.268;2023-03-04T00:59:49;95018.06;;;4.14;100.00
42247;BME280;27913;42.722;23.268;2023-03-04T01:04:50;94797.38;;;2.88;100.00
42247;BME280;27913;42.722;23.268;2023-03-04T01:07:16;94709.75;;;2.34;100.00
42247;BME280;27913;42.722;23.268;2023-03-04T01:09:41;94969.47;;;4.05;100.00
42247;BME280;27913;42.722;23.268;2023-03-04T01:12:07;94867.84;;;3.42;100.00
42247;BME280;27913;42.722;23.268;2023-03-04T01:14:32;94997.16;;;4.24;100.00
42247;BME280;27913;42.722;23.268;2023-03-04T01:16:58;95007.13;;;4.29;100.00
42247;BME280;27913;42.722;23.268;2023-03-04T01:19:23;95006.16;;;4.30;100.00
42247;BME280;27913;42.722;23.268;2023-03-04T01:21:49;94988.75;;;4.30;100.00
42247;BME280;27913;42.722;23.268;2023-03-04T01:24:15;94984.34;;;4.31;100.00
42247;BME280;27913;42.722;23.268;2023-03-04T01:26:40;94996.44;;;4.32;100.00
42247;BME280;27913;42.722;23.268;2023-03-04T01:29:06;94936.59;;;4.04;100.00
42247;BME280;27913;42.722;23.268;2023-03-04T01:31:31;94979.28;;;4.29;100.00
42247;BME280;27913;42.722;23.268;2023-03-04T01:33:57;94994.34;;;4.35;100.00
42247;BME280;27913;42.722;23.268;2023-03-04T01:36:22;94983.25;;;4.33;100.00
42247;BME280;27913;42.722;23.268;2023-03-04T01:38:48;94978.34;;;4.30;100.00
42247;BME280;27913;42.722;23.268;2023-03-04T01:41:23;94771.53;;;2.97;100.00
42247;BME280;27913;42.722;23.268;2023-03-04T01:43:50;94961.09;;;4.11;100.00
42247;BME280;27913;42.722;23.268;2023-03-04T01:46:15;94733.38;;;2.69;100.00
42247;BME280;27913;42.722;23.268;2023-03-04T01:48:42;94963.22;;;4.16;100.00
42247;BME280;27913;42.722;23.268;2023-03-04T01:51:13;94968.44;;;4.16;100.00
42247;BME280;27913;42.722;23.268;2023-03-04T01:53:39;94965.16;;;4.14;100.00
42247;BME280;27913;42.722;23.268;2023-03-04T01:56:15;94752.59;;;2.76;100.00
42247;BME280;27913;42.722;23.268;2023-03-04T01:58:43;94843.53;;;3.33;100.00
42247;BME280;27913;42.722;23.268;2023-03-04T02:01:16;94906.22;;;3.76;100.00
42247;BME280;27913;42.722;23.268;2023-03-04T02:03:41;94957.50;;;4.12;100.00
42247;BME280;27913;42.722;23.268;2023-03-04T02:06:07;94842.66;;;3.42;100.00
42247;BME280;27913;42.722;23.268;2023-03-04T02:08:33;94951.69;;;4.18;100.00
42247;BME280;27913;42.722;23.268;2023-03-04T02:10:59;94957.19;;;4.15;100.00
42247;BME280;27913;42.722;23.268;2023-03-04T02:13:24;94960.94;;;4.13;100.00
42247;BME280;27913;42.722;23.268;2023-03-04T02:15:50;94927.22;;;3.93;100.00
42247;BME280;27913;42.722;23.268;2023-03-04T02:18:18;94952.59;;;4.09;100.00
42247;BME280;27913;42.722;23.268;2023-03-04T02:23:48;94889.44;;;3.70;100.00
42247;BME280;27913;42.722;23.268;2023-03-04T02:26:19;94886.09;;;3.60;100.00
42247;BME280;27913;42.722;23.268;2023-03-04T02:28:47;94723.97;;;2.68;100.00
42247;BME280;27913;42.722;23.268;2023-03-04T02:31:30;94900.00;;;3.69;100.00
42247;BME280;27913;42.722;23.268;2023-03-04T02:33:58;94885.19;;;3.69;100.00
42247;BME280;27913;42.722;23.268;2023-03-04T02:36:24;94801.47;;;3.19;100.00
42247;BME280;27913;42.722;23.268;2023-03-04T02:38:51;94863.47;;;3.60;100.00
42247;BME280;27913;42.722;23.268;2023-03-04T02:41:21;94847.06;;;3.60;100.00
42247;BME280;27913;42.722;23.268;2023-03-04T02:43:52;94950.28;;;4.24;100.00
42247;BME280;27913;42.722;23.268;2023-03-04T02:46:18;94681.34;;;2.61;100.00
42247;BME280;27913;42.722;23.268;2023-03-04T02:48:44;94940.25;;;4.29;100.00
42247;BME280;27913;42.722;23.268;2023-03-04T02:51:09;94778.25;;;3.18;100.00
42247;BME280;27913;42.722;23.268;2023-03-04T02:53:35;94837.19;;;3.64;100.00
42247;BME280;27913;42.722;23.268;2023-03-04T02:56:01;94607.63;;;2.25;100.00
42247;BME280;27913;42.722;23.268;2023-03-04T02:58:26;94818.25;;;3.53;100.00
42247;BME280;27913;42.722;23.268;2023-03-04T03:00:52;94727.63;;;2.94;100.00
42247;BME280;27913;42.722;23.268;2023-03-04T03:03:17;94765.09;;;3.19;100.00
42247;BME280;27913;42.722;23.268;2023-03-04T03:05:43;94867.66;;;3.71;100.00
42247;BME280;27913;42.722;23.268;2023-03-04T03:08:08;94935.28;;;4.18;100.00
42247;BME280;27913;42.722;23.268;2023-03-04T03:10:34;94831.66;;;3.48;100.00
42247;BME280;27913;42.722;23.268;2023-03-04T03:13:00;94686.59;;;2.51;100.00
42247;BME280;27913;42.722;23.268;2023-03-04T03:15:25;94944.13;;;4.07;100.00
42247;BME280;27913;42.722;23.268;2023-03-04T03:17:51;94932.72;;;4.08;100.00
42247;BME280;27913;42.722;23.268;2023-03-04T03:20:17;94683.63;;;2.46;100.00
42247;BME280;27913;42.722;23.268;2023-03-04T03:22:43;94824.25;;;3.35;100.00
42247;BME280;27913;42.722;23.268;2023-03-04T03:25:09;94959.88;;;4.05;100.00
42247;BME280;27913;42.722;23.268;2023-03-04T03:27:35;94830.91;;;3.38;100.00
42247;BME280;27913;42.722;23.268;2023-03-04T03:30:01;94937.28;;;4.06;100.00
42247;BME280;27913;42.722;23.268;2023-03-04T03:32:27;94930.44;;;4.05;100.00
42247;BME280;27913;42.722;23.268;2023-03-04T03:34:52;94938.91;;;4.07;100.00
42247;BME280;27913;42.722;23.268;2023-03-04T03:37:18;94925.22;;;4.05;100.00
42247;BME280;27913;42.722;23.268;2023-03-04T03:39:43;94910.41;;;3.87;100.00
42247;BME280;27913;42.722;23.268;2023-03-04T03:42:09;94927.81;;;4.05;100.00
42247;BME280;27913;42.722;23.268;2023-03-04T03:44:34;94929.16;;;4.09;100.00
42247;BME280;27913;42.722;23.268;2023-03-04T03:47:00;94933.56;;;4.08;100.00
42247;BME280;27913;42.722;23.268;2023-03-04T03:49:26;94895.47;;;3.89;100.00
42247;BME280;27913;42.722;23.268;2023-03-04T03:51:52;94717.25;;;2.65;100.00
42247;BME280;27913;42.722;23.268;2023-03-04T03:54:18;94935.47;;;4.06;100.00
42247;BME280;27913;42.722;23.268;2023-03-04T03:56:43;94810.28;;;3.36;100.00
42247;BME280;27913;42.722;23.268;2023-03-04T03:59:08;94887.63;;;3.71;100.00
42247;BME280;27913;42.722;23.268;2023-03-04T04:01:34;94868.22;;;3.47;100.00
42247;BME280;27913;42.722;23.268;2023-03-04T04:04:00;94932.94;;;3.96;100.00
42247;BME280;27913;42.722;23.268;2023-03-04T04:06:26;94921.56;;;3.97;100.00
42247;BME280;27913;42.722;23.268;2023-03-04T04:08:51;94855.06;;;3.48;100.00
42247;BME280;27913;42.722;23.268;2023-03-04T04:11:17;94920.88;;;3.95;100.00
42247;BME280;27913;42.722;23.268;2023-03-04T04:13:42;94892.41;;;3.76;100.00
42247;BME280;27913;42.722;23.268;2023-03-04T04:16:09;94908.72;;;3.96;100.00
42247;BME280;27913;42.722;23.268;2023-03-04T04:18:35;94908.72;;;3.96;100.00
42247;BME280;27913;42.722;23.268;2023-03-04T04:21:01;94852.16;;;3.52;100.00
42247;BME280;27913;42.722;23.268;2023-03-04T04:23:26;94851.47;;;3.31;100.00
42247;BME280;27913;42.722;23.268;2023-03-04T04:25:54;94635.88;;;2.00;100.00
42247;BME280;27913;42.722;23.268;2023-03-04T04:28:19;94917.59;;;3.75;100.00
42247;BME280;27913;42.722;23.268;2023-03-04T04:30:45;94911.34;;;3.68;100.00
42247;BME280;27913;42.722;23.268;2023-03-04T04:33:10;94836.38;;;3.17;100.00
42247;BME280;27913;42.722;23.268;2023-03-04T04:35:36;94640.28;;;1.90;100.00
42247;BME280;27913;42.722;23.268;2023-03-04T04:38:03;94923.56;;;3.67;100.00
42247;BME280;27913;42.722;23.268;2023-03-04T04:40:29;94927.69;;;3.60;100.00
42247;BME280;27913;42.722;23.268;2023-03-04T04:42:54;94924.41;;;3.58;100.00
42247;BME280;27913;42.722;23.268;2023-03-04T04:45:21;94863.47;;;3.14;100.00
42247;BME280;27913;42.722;23.268;2023-03-04T04:47:49;94896.06;;;3.36;100.00
42247;BME280;27913;42.722;23.268;2023-03-04T04:50:15;94917.19;;;3.52;100.00
42247;BME280;27913;42.722;23.268;2023-03-04T04:52:40;94914.97;;;3.57;100.00
42247;BME280;27913;42.722;23.268;2023-03-04T04:55:06;94914.53;;;3.61;100.00
42247;BME280;27913;42.722;23.268;2023-03-04T04:57:32;94849.50;;;3.15;100.00
42247;BME280;27913;42.722;23.268;2023-03-04T04:59:57;94908.81;;;3.58;100.00
42247;BME280;27913;42.722;23.268;2023-03-04T05:02:23;94933.56;;;3.62;100.00
42247;BME280;27913;42.722;23.268;2023-03-04T05:04:48;94933.56;;;3.62;100.00
42247;BME280;27913;42.722;23.268;2023-03-04T05:07:14;94936.84;;;3.64;100.00
42247;BME280;27913;42.722;23.268;2023-03-04T05:09:39;94940.94;;;3.67;100.00
42247;BME280;27913;42.722;23.268;2023-03-04T05:12:05;94958.03;;;3.69;100.00
42247;BME280;27913;42.722;23.268;2023-03-04T05:14:30;94627.94;;;1.74;100.00
42247;BME280;27913;42.722;23.268;2023-03-04T05:16:56;94945.84;;;3.70;100.00
42247;BME280;27913;42.722;23.268;2023-03-04T05:19:22;94941.22;;;3.64;100.00
42247;BME280;27913;42.722;23.268;2023-03-04T05:21:47;94941.34;;;3.62;100.00
42247;BME280;27913;42.722;23.268;2023-03-04T05:24:13;94939.28;;;3.66;100.00
42247;BME280;27913;42.722;23.268;2023-03-04T05:26:38;94710.25;;;2.20;100.00
42247;BME280;27913;42.722;23.268;2023-03-04T05:29:04;94747.78;;;2.53;100.00
42247;BME280;27913;42.722;23.268;2023-03-04T05:31:29;94864.16;;;3.16;100.00
42247;BME280;27913;42.722;23.268;2023-03-04T05:33:55;94960.22;;;3.74;100.00
42247;BME280;27913;42.722;23.268;2023-03-04T05:36:21;94951.44;;;3.75;100.00
42247;BME280;27913;42.722;23.268;2023-03-04T05:38:46;94607.47;;;1.61;100.00
42247;BME280;27913;42.722;23.268;2023-03-04T05:41:12;94949.34;;;3.79;100.00
42247;BME280;27913;42.722;23.268;2023-03-04T05:43:37;94628.72;;;1.74;100.00
42247;BME280;27913;42.722;23.268;2023-03-04T05:46:08;94948.91;;;3.83;100.00
42247;BME280;27913;42.722;23.268;2023-03-04T05:48:36;94831.38;;;3.05;100.00
42247;BME280;27913;42.722;23.268;2023-03-04T05:51:01;94830.09;;;3.09;100.00
42247;BME280;27913;42.722;23.268;2023-03-04T05:53:28;94957.63;;;3.92;100.00
42247;BME280;27913;42.722;23.268;2023-03-04T05:55:53;94961.50;;;3.88;100.00
42247;BME280;27913;42.722;23.268;2023-03-04T05:58:19;94935.78;;;3.57;100.00
42247;BME280;27913;42.722;23.268;2023-03-04T06:00:45;94822.13;;;2.93;100.00
42247;BME280;27913;42.722;23.268;2023-03-04T06:03:19;94978.13;;;3.95;100.00
42247;BME280;27913;42.722;23.268;2023-03-04T06:05:44;94974.97;;;4.02;100.00
42247;BME280;27913;42.722;23.268;2023-03-04T06:08:11;94963.19;;;3.97;100.00
42247;BME280;27913;42.722;23.268;2023-03-04T06:10:38;94735.63;;;2.54;100.00
42247;BME280;27913;42.722;23.268;2023-03-04T06:13:04;94985.53;;;4.18;100.00
42247;BME280;27913;42.722;23.268;2023-03-04T06:15:30;94928.56;;;3.97;100.00
42247;BME280;27913;42.722;23.268;2023-03-04T06:17:56;94815.16;;;3.40;100.00
42247;BME280;27913;42.722;23.268;2023-03-04T06:20:22;94974.78;;;4.50;100.00
42247;BME280;27913;42.722;23.268;2023-03-04T06:22:47;94920.75;;;4.15;100.00
42247;BME280;27913;42.722;23.268;2023-03-04T06:25:13;94873.69;;;3.90;100.00
42247;BME280;27913;42.722;23.268;2023-03-04T06:27:38;94979.75;;;4.61;100.00
42247;BME280;27913;42.722;23.268;2023-03-04T06:30:04;94995.69;;;4.58;100.00
42247;BME280;27913;42.722;23.268;2023-03-04T06:32:30;94667.59;;;2.50;100.00
42247;BME280;27913;42.722;23.268;2023-03-04T06:34:55;94977.75;;;4.55;100.00
42247;BME280;27913;42.722;23.268;2023-03-04T06:37:21;94991.78;;;4.62;100.00
42247;BME280;27913;42.722;23.268;2023-03-04T06:39:46;94726.38;;;2.98;100.00
42247;BME280;27913;42.722;23.268;2023-03-04T06:42:13;94937.13;;;4.26;100.00
42247;BME280;27913;42.722;23.268;2023-03-04T06:44:39;94874.72;;;3.97;100.00
42247;BME280;27913;42.722;23.268;2023-03-04T06:47:04;94787.41;;;3.40;100.00
42247;BME280;27913;42.722;23.268;2023-03-04T06:49:30;94758.31;;;3.08;100.00
42247;BME280;27913;42.722;23.268;2023-03-04T06:51:56;94993.28;;;4.46;100.00
42247;BME280;27913;42.722;23.268;2023-03-04T06:54:21;95010.13;;;4.34;100.00
42247;BME280;27913;42.722;23.268;2023-03-04T06:56:47;94992.91;;;4.41;100.00
42247;BME280;27913;42.722;23.268;2023-03-04T06:59:12;94709.75;;;2.62;100.00
42247;BME280;27913;42.722;23.268;2023-03-04T07:01:38;95005.94;;;4.41;100.00
42247;BME280;27913;42.722;23.268;2023-03-04T07:04:03;94911.69;;;3.83;100.00
42247;BME280;27913;42.722;23.268;2023-03-04T07:06:29;95007.13;;;4.47;100.00
42247;BME280;27913;42.722;23.268;2023-03-04T07:08:55;94994.25;;;4.45;100.00
42247;BME280;27913;42.722;23.268;2023-03-04T07:11:22;95012.34;;;4.47;100.00
42247;BME280;27913;42.722;23.268;2023-03-04T07:13:48;94998.88;;;4.33;100.00
42247;BME280;27913;42.722;23.268;2023-03-04T07:16:16;95010.41;;;4.49;100.00
42247;BME280;27913;42.722;23.268;2023-03-04T07:18:42;94693.72;;;2.49;100.00
42247;BME280;27913;42.722;23.268;2023-03-04T07:21:08;94712.56;;;2.51;100.00
42247;BME280;27913;42.722;23.268;2023-03-04T07:23:35;95015.31;;;4.52;100.00
42247;BME280;27913;42.722;23.268;2023-03-04T07:26:01;94886.63;;;3.82;100.00
42247;BME280;27913;42.722;23.268;2023-03-04T07:28:26;94930.50;;;4.13;100.00
42247;BME280;27913;42.722;23.268;2023-03-04T07:30:52;94932.50;;;4.01;100.00
42247;BME280;27913;42.722;23.268;2023-03-04T07:33:17;94956.78;;;4.20;100.00
42247;BME280;27913;42.722;23.268;2023-03-04T07:35:43;94902.59;;;3.87;100.00
42247;BME280;27913;42.722;23.268;2023-03-04T07:38:09;94833.97;;;3.52;100.00
42247;BME280;27913;42.722;23.268;2023-03-04T07:40:34;95014.28;;;4.63;100.00
42247;BME280;27913;42.722;23.268;2023-03-04T07:43:00;94981.91;;;4.47;100.00
42247;BME280;27913;42.722;23.268;2023-03-04T07:45:26;95000.63;;;4.69;100.00
42247;BME280;27913;42.722;23.268;2023-03-04T07:47:51;94947.09;;;4.30;100.00
42247;BME280;27913;42.722;23.268;2023-03-04T07:50:17;94999.59;;;4.80;100.00
42247;BME280;27913;42.722;23.268;2023-03-04T07:52:45;94921.19;;;4.29;100.00
42247;BME280;27913;42.722;23.268;2023-03-04T07:55:13;95003.03;;;4.81;100.00
42247;BME280;27913;42.722;23.268;2023-03-04T07:57:40;94753.94;;;3.27;100.00
42247;BME280;27913;42.722;23.268;2023-03-04T08:00:07;95015.44;;;4.87;100.00
42247;BME280;27913;42.722;23.268;2023-03-04T08:02:33;95009.13;;;4.90;100.00
42247;BME280;27913;42.722;23.268;2023-03-04T08:04:59;94941.81;;;4.40;100.00
42247;BME280;27913;42.722;23.268;2023-03-04T08:07:24;95006.66;;;4.88;100.00
42247;BME280;27913;42.722;23.268;2023-03-04T08:09:50;94994.91;;;4.84;100.00
42247;BME280;27913;42.722;23.268;2023-03-04T08:12:15;94995.56;;;4.86;100.00
42247;BME280;27913;42.722;23.268;2023-03-04T08:14:41;94922.06;;;4.38;100.00
42247;BME280;27913;42.722;23.268;2023-03-04T08:17:07;94934.00;;;4.40;100.00
42247;BME280;27913;42.722;23.268;2023-03-04T08:19:34;94798.72;;;3.67;100.00
42247;BME280;27913;42.722;23.268;2023-03-04T08:21:59;94981.75;;;4.67;100.00
42247;BME280;27913;42.722;23.268;2023-03-04T08:24:25;94999.59;;;4.80;100.00
42247;BME280;27913;42.722;23.268;2023-03-04T08:26:50;94958.59;;;4.64;100.00
42247;BME280;27913;42.722;23.268;2023-03-04T08:29:21;94949.38;;;4.70;100.00
42247;BME280;27913;42.722;23.268;2023-03-04T08:31:48;94989.94;;;4.99;100.00
42247;BME280;27913;42.722;23.268;2023-03-04T08:34:14;94851.03;;;4.01;100.00
42247;BME280;27913;42.722;23.268;2023-03-04T08:36:41;94847.19;;;4.13;100.00
42247;BME280;27913;42.722;23.268;2023-03-04T08:39:11;94996.88;;;5.08;100.00
42247;BME280;27913;42.722;23.268;2023-03-04T08:41:37;94892.59;;;4.55;99.23
42247;BME280;27913;42.722;23.268;2023-03-04T08:44:03;94870.25;;;4.44;99.13
42247;BME280;27913;42.722;23.268;2023-03-04T08:46:29;94878.47;;;4.58;99.47
42247;BME280;27913;42.722;23.268;2023-03-04T08:48:55;94983.13;;;5.25;97.79
42247;BME280;27913;42.722;23.268;2023-03-04T08:51:20;94984.91;;;5.24;97.26
42247;BME280;27913;42.722;23.268;2023-03-04T08:53:46;94961.34;;;5.07;97.10
42247;BME280;27913;42.722;23.268;2023-03-04T08:56:12;94832.38;;;4.32;96.67
42247;BME280;27913;42.722;23.268;2023-03-04T08:58:39;94981.34;;;5.25;96.64
42247;BME280;27913;42.722;23.268;2023-03-04T09:01:08;94869.22;;;4.64;96.33
42247;BME280;27913;42.722;23.268;2023-03-04T09:03:34;94924.84;;;5.07;96.00
42247;BME280;27913;42.722;23.268;2023-03-04T09:06:00;94831.56;;;4.58;96.23
42247;BME280;27913;42.722;23.268;2023-03-04T09:08:26;94986.25;;;5.63;96.39
42247;BME280;27913;42.722;23.268;2023-03-04T09:10:53;94870.16;;;5.16;95.95
42247;BME280;27913;42.722;23.268;2023-03-04T09:13:20;94974.66;;;5.66;93.48
42247;BME280;27913;42.722;23.268;2023-03-04T09:15:46;94802.56;;;4.53;93.16
42247;BME280;27913;42.722;23.268;2023-03-04T09:18:13;94956.06;;;5.61;93.47
42247;BME280;27913;42.722;23.268;2023-03-04T09:20:38;94663.34;;;3.77;93.19
42247;BME280;27913;42.722;23.268;2023-03-04T09:23:04;94684.88;;;3.88;93.21
42247;BME280;27913;42.722;23.268;2023-03-04T09:25:30;94963.94;;;5.69;93.51
42247;BME280;27913;42.722;23.268;2023-03-04T09:27:55;94924.53;;;5.46;93.08
42247;BME280;27913;42.722;23.268;2023-03-04T09:30:21;94965.88;;;5.67;92.58
42247;BME280;27913;42.722;23.268;2023-03-04T09:32:47;94908.88;;;5.37;92.89
42247;BME280;27913;42.722;23.268;2023-03-04T09:35:12;94912.97;;;5.48;93.19
42247;BME280;27913;42.722;23.268;2023-03-04T09:37:38;94690.44;;;4.19;92.74
42247;BME280;27913;42.722;23.268;2023-03-04T09:40:04;94953.72;;;5.92;92.05
42247;BME280;27913;42.722;23.268;2023-03-04T09:42:35;94934.16;;;5.88;92.20
42247;BME280;27913;42.722;23.268;2023-03-04T09:45:04;94844.31;;;5.39;90.71
42247;BME280;27913;42.722;23.268;2023-03-04T09:47:33;94758.63;;;4.93;89.55
42247;BME280;27913;42.722;23.268;2023-03-04T09:50:06;94948.59;;;6.09;88.80
42247;BME280;27913;42.722;23.268;2023-03-04T09:53:09;94947.94;;;6.24;88.58
42247;BME280;27913;42.722;23.268;2023-03-04T09:55:41;94843.41;;;5.65;88.22
42247;BME280;27913;42.722;23.268;2023-03-04T10:03:27;94802.44;;;5.49;87.41
42247;BME280;27913;42.722;23.268;2023-03-04T10:06:01;94845.22;;;5.82;87.07
42247;BME280;27913;42.722;23.268;2023-03-04T10:10:58;94824.38;;;6.07;85.96
42247;BME280;27913;42.722;23.268;2023-03-04T10:13:32;94827.81;;;6.07;86.06
42247;BME280;27913;42.722;23.268;2023-03-04T10:16:02;94932.47;;;6.64;86.03
42247;BME280;27913;42.722;23.268;2023-03-04T10:18:40;94919.72;;;6.69;86.54
42247;BME280;27913;42.722;23.268;2023-03-04T10:21:31;94769.84;;;5.62;86.27
42247;BME280;27913;42.722;23.268;2023-03-04T10:24:11;94917.28;;;6.51;88.34
42247;BME280;27913;42.722;23.268;2023-03-04T10:26:37;94653.03;;;4.80;88.23
42247;BME280;27913;42.722;23.268;2023-03-04T10:29:04;94913.38;;;6.55;87.75
42247;BME280;27913;42.722;23.268;2023-03-04T10:31:35;94634.97;;;4.87;86.45
42247;BME280;27913;42.722;23.268;2023-03-04T10:34:05;94898.31;;;6.57;88.58
42247;BME280;27913;42.722;23.268;2023-03-04T10:39:08;94845.13;;;6.25;88.40
42247;BME280;27913;42.722;23.268;2023-03-04T10:41:35;94898.00;;;6.60;88.71
42247;BME280;27913;42.722;23.268;2023-03-04T10:46:46;94809.53;;;6.24;88.40
42247;BME280;27913;42.722;23.268;2023-03-04T10:49:16;94852.09;;;6.58;87.70
42247;BME280;27913;42.722;23.268;2023-03-04T10:51:49;94833.00;;;6.49;87.30
42247;BME280;27913;42.722;23.268;2023-03-04T10:54:28;94833.81;;;6.58;87.09
42247;BME280;27913;42.722;23.268;2023-03-04T10:57:03;94797.59;;;6.46;86.71
42247;BME280;27913;42.722;23.268;2023-03-04T10:59:56;94736.09;;;6.19;86.88
42247;BME280;27913;42.722;23.268;2023-03-04T11:02:30;94861.66;;;6.99;87.15
42247;BME280;27913;42.722;23.268;2023-03-04T11:07:39;94764.13;;;6.33;86.87
42247;BME280;27913;42.722;23.268;2023-03-04T11:13:32;94756.75;;;6.54;85.90
42247;BME280;27913;42.722;23.268;2023-03-04T11:18:18;94846.56;;;7.18;85.79
42247;BME280;27913;42.722;23.268;2023-03-04T11:20:46;94831.31;;;7.30;85.17
42247;BME280;27913;42.722;23.268;2023-03-04T11:23:31;94610.78;;;6.02;84.88
42247;BME280;27913;42.722;23.268;2023-03-04T11:26:05;94720.59;;;6.74;84.02
42247;BME280;27913;42.722;23.268;2023-03-04T11:28:38;94744.81;;;6.99;83.56
42247;BME280;27913;42.722;23.268;2023-03-04T11:31:13;94563.69;;;5.87;83.17
42247;BME280;27913;42.722;23.268;2023-03-04T11:33:54;94773.41;;;7.33;83.48
42247;BME280;27913;42.722;23.268;2023-03-04T11:36:24;94751.88;;;7.22;82.84
42247;BME280;27913;42.722;23.268;2023-03-04T11:38:54;94750.63;;;7.18;83.61
42247;BME280;27913;42.722;23.268;2023-03-04T11:41:28;94665.34;;;6.77;82.71
42247;BME280;27913;42.722;23.268;2023-03-04T11:43:58;94808.41;;;7.64;82.02
42247;BME280;27913;42.722;23.268;2023-03-04T11:46:31;94745.34;;;7.27;82.01
42247;BME280;27913;42.722;23.268;2023-03-04T11:51:56;94800.31;;;7.73;81.55
42247;BME280;27913;42.722;23.268;2023-03-04T11:57:32;94786.94;;;7.92;81.59
42247;BME280;27913;42.722;23.268;2023-03-04T12:00:03;94733.19;;;7.57;81.22
42247;BME280;27913;42.722;23.268;2023-03-04T12:02:47;94781.25;;;7.88;81.77
42247;BME280;27913;42.722;23.268;2023-03-04T12:28:06;94747.94;;;8.36;79.04
42247;BME280;27913;42.722;23.268;2023-03-04T12:33:53;94720.91;;;8.20;78.51
42247;BME280;27913;42.722;23.268;2023-03-04T12:44:56;94649.22;;;7.82;77.44
42247;BME280;27913;42.722;23.268;2023-03-04T12:50:30;94737.00;;;8.32;79.20
42247;BME280;27913;42.722;23.268;2023-03-04T12:53:05;94669.94;;;7.92;79.50
42247;BME280;27913;42.722;23.268;2023-03-04T12:55:37;94726.88;;;8.29;79.73
42247;BME280;27913;42.722;23.268;2023-03-04T12:58:05;94682.47;;;7.97;78.72
42247;BME280;27913;42.722;23.268;2023-03-04T13:09:25;94572.34;;;7.30;79.14
42247;BME280;27913;42.722;23.268;2023-03-04T13:18:57;94700.00;;;7.96;80.35
42247;BME280;27913;42.722;23.268;2023-03-04T13:21:28;94631.47;;;7.54;79.77
42247;BME280;27913;42.722;23.268;2023-03-04T13:23:56;94692.75;;;7.83;80.04
42247;BME280;27913;42.722;23.268;2023-03-04T13:26:32;94564.63;;;7.13;79.99
42247;BME280;27913;42.722;23.268;2023-03-04T13:32:09;94692.88;;;8.05;79.56
42247;BME280;27913;42.722;23.268;2023-03-04T13:34:45;94530.66;;;7.13;79.72
42247;BME280;27913;42.722;23.268;2023-03-04T13:37:27;94690.81;;;8.01;79.70
42247;BME280;27913;42.722;23.268;2023-03-04T13:42:45;94678.41;;;7.94;79.71
42247;BME280;27913;42.722;23.268;2023-03-04T13:45:30;94634.31;;;7.68;80.28
42247;BME280;27913;42.722;23.268;2023-03-04T13:47:56;94619.78;;;7.65;80.62
42247;BME280;27913;42.722;23.268;2023-03-04T13:50:35;94577.94;;;7.42;80.88
42247;BME280;27913;42.722;23.268;2023-03-04T13:53:32;94672.28;;;8.02;82.12
42247;BME280;27913;42.722;23.268;2023-03-04T13:58:52;94662.50;;;7.81;83.43
42247;BME280;27913;42.722;23.268;2023-03-04T14:01:28;94651.66;;;7.69;83.50
42247;BME280;27913;42.722;23.268;2023-03-04T14:03:56;94665.00;;;7.74;83.76
42247;BME280;27913;42.722;23.268;2023-03-04T14:06:23;94658.78;;;7.75;84.08
42247;BME280;27913;42.722;23.268;2023-03-04T14:08:50;94498.81;;;6.86;83.74
42247;BME280;27913;42.722;23.268;2023-03-04T14:11:25;94562.34;;;7.33;83.27
42247;BME280;27913;42.722;23.268;2023-03-04T14:13:52;94631.44;;;7.78;82.60
42247;BME280;27913;42.722;23.268;2023-03-04T14:16:25;94433.22;;;6.57;82.48
42247;BME280;27913;42.722;23.268;2023-03-04T14:18:57;94647.72;;;8.03;82.50
42247;BME280;27913;42.722;23.268;2023-03-04T14:21:23;94650.16;;;8.05;82.11
42247;BME280;27913;42.722;23.268;2023-03-04T14:24:02;94654.59;;;8.04;82.25
42247;BME280;27913;42.722;23.268;2023-03-04T14:26:30;94650.09;;;8.13;82.55
42247;BME280;27913;42.722;23.268;2023-03-04T14:28:56;94660.00;;;8.18;81.96
42247;BME280;27913;42.722;23.268;2023-03-04T14:31:25;94602.09;;;7.82;81.89